Time;durP1;ratioP1;P1;durP2;ratioP2;P2;SDS_P1;SDS_P2;PMS_P1;PMS_P2;Temp;Humidity;BMP_temperature;BMP_pressure;BME280_temperature;BME280_humidity;BME280_pressure;Samples;Min_cycle;Max_cycle;Signal;HPM_P1;HPM_P2
2023/12/31 00:02:08;;;;;;;4.40;3.03;;;8.10;99.90;;;;;;5020149;28;20844;-68
2023/12/31 00:04:35;;;;;;;6.30;3.23;;;8.10;99.90;;;;;;5017908;28;20551;-67
2023/12/31 00:07:03;;;;;;;3.87;2.70;;;8.10;99.90;;;;;;5018476;28;20595;-68
2023/12/31 00:09:30;;;;;;;4.03;3.17;;;8.10;99.90;;;;;;5019189;28;20459;-67
2023/12/31 00:11:57;;;;;;;4.77;3.20;;;8.10;99.90;;;;;;5019089;28;20502;-68
2023/12/31 00:14:24;;;;;;;5.63;3.70;;;8.00;99.90;;;;;;5018937;28;20463;-68
2023/12/31 00:16:52;;;;;;;4.40;3.83;;;8.00;99.90;;;;;;5018812;28;20488;-70
2023/12/31 00:19:20;;;;;;;7.30;4.00;;;8.00;99.90;;;;;;5020239;28;20474;-68
2023/12/31 00:21:48;;;;;;;5.90;4.00;;;8.00;99.90;;;;;;5018475;28;20554;-68
2023/12/31 00:24:15;;;;;;;5.43;4.60;;;8.00;1.00;;;;;;5019118;28;20460;-67
2023/12/31 00:26:42;;;;;;;7.80;4.73;;;8.10;1.00;;;;;;5018735;28;20502;-68
2023/12/31 00:29:09;;;;;;;5.33;3.70;;;8.10;1.00;;;;;;5019322;28;20510;-66
2023/12/31 00:31:36;;;;;;;7.30;4.80;;;8.10;1.00;;;;;;5022038;28;20555;-67
2023/12/31 00:34:03;;;;;;;6.93;4.80;;;8.10;1.00;;;;;;5022529;28;20459;-67
2023/12/31 00:36:34;;;;;;;7.50;4.30;;;8.20;1.00;;;;;;5022364;28;20544;-67
2023/12/31 00:39:01;;;;;;;6.17;4.90;;;8.20;1.00;;;;;;5022179;28;20881;-67
2023/12/31 00:41:28;;;;;;;6.70;5.03;;;8.20;1.00;;;;;;5022670;28;20466;-67
2023/12/31 00:43:55;;;;;;;7.50;5.20;;;8.20;1.00;;;;;;5022995;28;20456;-67
2023/12/31 00:46:23;;;;;;;6.73;5.43;;;8.20;99.90;;;;;;5022071;28;20492;-68
2023/12/31 00:48:50;;;;;;;7.47;5.30;;;8.20;99.90;;;;;;5021924;28;20459;-67
2023/12/31 00:51:17;;;;;;;7.00;5.60;;;8.20;99.90;;;;;;5021716;28;20456;-67
2023/12/31 00:53:46;;;;;;;6.20;4.80;;;8.20;99.90;;;;;;5022559;28;20460;-67
2023/12/31 00:56:13;;;;;;;6.80;4.87;;;8.20;99.90;;;;;;5022699;28;20456;-67
2023/12/31 00:58:41;;;;;;;7.03;4.80;;;8.20;99.90;;;;;;5023687;28;20550;-67
2023/12/31 01:01:08;;;;;;;10.30;5.60;;;8.20;99.90;;;;;;5023578;28;20467;-67
2023/12/31 01:03:35;;;;;;;7.00;4.67;;;8.10;99.90;;;;;;5022009;28;20546;-67
2023/12/31 01:06:06;;;;;;;6.53;5.60;;;8.10;99.90;;;;;;5021817;28;20846;-67
2023/12/31 01:08:34;;;;;;;6.90;5.50;;;8.10;99.90;;;;;;5020530;28;20464;-70
2023/12/31 01:11:02;;;;;;;6.40;5.53;;;8.10;99.90;;;;;;5022715;28;20554;-67
2023/12/31 01:13:30;;;;;;;6.10;4.83;;;8.10;99.90;;;;;;5022863;28;20459;-70
2023/12/31 01:15:57;;;;;;;6.10;4.43;;;8.10;99.90;;;;;;5023099;28;20463;-67
2023/12/31 01:18:25;;;;;;;5.80;4.90;;;8.10;99.90;;;;;;5021810;28;20926;-66
2023/12/31 01:20:52;;;;;;;7.73;5.10;;;8.10;99.90;;;;;;5021657;28;20460;-68
2023/12/31 01:23:19;;;;;;;6.27;4.80;;;8.00;99.90;;;;;;5019526;28;20578;-66
2023/12/31 01:25:46;;;;;;;4.70;4.23;;;8.00;99.90;;;;;;5020724;28;20482;-67
2023/12/31 01:28:15;;;;;;;5.10;4.50;;;8.00;99.90;;;;;;5019701;28;20555;-69
2023/12/31 01:30:42;;;;;;;4.83;3.70;;;7.90;99.90;;;;;;5019456;28;20894;-67
2023/12/31 01:33:09;;;;;;;6.20;4.67;;;8.00;99.90;;;;;;5020678;28;20460;-67
2023/12/31 01:35:36;;;;;;;5.07;3.63;;;7.90;99.90;;;;;;5020670;28;20435;-67
2023/12/31 01:38:04;;;;;;;5.73;4.10;;;8.00;95.10;;;;;;5021255;28;20466;-67
2023/12/31 01:40:31;;;;;;;5.73;4.23;;;8.00;44.60;;;;;;5021048;28;20515;-67
2023/12/31 01:42:58;;;;;;;6.43;3.77;;;8.00;11.70;;;;;;5021053;28;20463;-67
2023/12/31 01:45:27;;;;;;;5.20;3.77;;;8.00;7.00;;;;;;5020481;28;20562;-68
2023/12/31 01:47:54;;;;;;;4.70;4.20;;;7.90;32.00;;;;;;5020876;28;20793;-67
2023/12/31 01:50:22;;;;;;;5.83;4.70;;;8.00;23.10;;;;;;5021263;28;20556;-68
2023/12/31 01:52:51;;;;;;;5.00;4.10;;;8.00;28.00;;;;;;5021098;28;20568;-66
2023/12/31 01:55:18;;;;;;;4.90;4.00;;;8.00;1.00;;;;;;5021035;28;20460;-66
2023/12/31 01:57:46;;;;;;;4.87;3.97;;;8.00;1.00;;;;;;5020260;28;20500;-68
2023/12/31 02:00:17;;;;;;;4.63;3.67;;;8.00;2.10;;;;;;5020375;28;20464;-66
2023/12/31 02:02:49;;;;;;;4.27;3.73;;;8.00;1.00;;;;;;5020935;28;20496;-68
2023/12/31 02:05:16;;;;;;;5.17;3.67;;;8.00;1.00;;;;;;5021242;28;20936;-67
2023/12/31 02:07:44;;;;;;;4.67;4.00;;;8.00;1.00;;;;;;5019834;28;20537;-67
2023/12/31 02:10:11;;;;;;;6.13;3.87;;;8.00;1.00;;;;;;5020206;28;20889;-67
2023/12/31 02:12:39;;;;;;;4.43;4.03;;;8.00;1.00;;;;;;5020096;28;20496;-66
2023/12/31 02:15:09;;;;;;;4.07;3.57;;;8.00;1.00;;;;;;5020253;28;20886;-67
2023/12/31 02:17:36;;;;;;;4.60;4.00;;;8.00;1.00;;;;;;5020161;28;20463;-66
2023/12/31 02:20:06;;;;;;;4.60;3.90;;;8.00;1.00;;;;;;5020050;28;20464;-66
2023/12/31 02:22:34;;;;;;;5.43;3.63;;;8.00;1.00;;;;;;5019849;28;20553;-67
2023/12/31 02:25:06;;;;;;;5.37;4.23;;;8.00;1.00;;;;;;5019712;28;20495;-67
2023/12/31 02:27:35;;;;;;;3.90;3.23;;;7.90;1.00;;;;;;5020366;28;20941;-67
2023/12/31 02:30:02;;;;;;;4.60;3.63;;;8.00;1.00;;;;;;5019945;28;20468;-66
2023/12/31 02:32:29;;;;;;;5.30;3.60;;;8.00;1.00;;;;;;5020196;28;20460;-68
2023/12/31 02:34:56;;;;;;;4.70;3.93;;;8.00;1.00;;;;;;5019664;28;20747;-66
2023/12/31 02:37:24;;;;;;;4.90;4.30;;;8.00;1.00;;;;;;5019915;28;20464;-65
2023/12/31 02:39:51;;;;;;;5.10;3.60;;;8.00;1.00;;;;;;5019127;28;20466;-66
2023/12/31 02:42:18;;;;;;;4.63;3.90;;;8.10;1.00;;;;;;5019414;28;20466;-66
2023/12/31 02:44:47;;;;;;;4.80;3.73;;;8.10;1.00;;;;;;5019429;28;20471;-66
2023/12/31 02:47:15;;;;;;;3.57;3.00;;;8.10;1.00;;;;;;5019518;28;20500;-65
2023/12/31 02:49:42;;;;;;;4.27;3.63;;;8.10;1.00;;;;;;5018370;28;20475;-66
2023/12/31 02:52:11;;;;;;;4.70;3.67;;;8.10;1.00;;;;;;5019096;28;20492;-64
2023/12/31 02:54:39;;;;;;;4.70;4.00;;;8.10;1.00;;;;;;5018626;28;20464;-66
2023/12/31 02:57:07;;;;;;;4.70;4.00;;;8.10;1.00;;;;;;5019719;28;20460;-64
2023/12/31 02:59:35;;;;;;;4.70;4.20;;;8.10;1.00;;;;;;5019057;28;20551;-65
2023/12/31 03:02:04;;;;;;;5.30;3.60;;;8.10;1.00;;;;;;5018813;28;20471;-65
2023/12/31 03:04:32;;;;;;;4.70;3.60;;;8.10;1.00;;;;;;5018728;28;20471;-66
2023/12/31 03:06:59;;;;;;;4.97;4.00;;;8.10;1.00;;;;;;5019055;28;20496;-66
2023/12/31 03:09:26;;;;;;;4.87;3.53;;;8.10;1.00;;;;;;5019124;28;20445;-67
2023/12/31 03:11:54;;;;;;;4.67;3.80;;;8.00;1.00;;;;;;5018616;28;20460;-64
2023/12/31 03:14:21;;;;;;;4.03;3.63;;;8.00;1.00;;;;;;5018622;28;20459;-65
2023/12/31 03:16:48;;;;;;;6.43;4.07;;;8.00;1.00;;;;;;5018715;28;20459;-62
2023/12/31 03:19:19;;;;;;;4.63;3.87;;;8.00;1.00;;;;;;5018770;28;20464;-65
2023/12/31 03:21:46;;;;;;;6.30;3.83;;;8.00;1.00;;;;;;5018897;28;20466;-64
2023/12/31 03:24:14;;;;;;;4.77;3.87;;;8.00;1.00;;;;;;5018694;28;20479;-65
2023/12/31 03:26:41;;;;;;;4.60;3.67;;;8.00;1.00;;;;;;5018465;28;20488;-65
2023/12/31 03:29:08;;;;;;;5.27;3.90;;;8.00;1.00;;;;;;5018739;28;20462;-65
2023/12/31 03:31:36;;;;;;;4.33;3.57;;;8.00;1.00;;;;;;5018445;28;20563;-64
2023/12/31 03:34:06;;;;;;;4.70;3.73;;;8.00;1.00;;;;;;5018240;28;20828;-64
2023/12/31 03:36:35;;;;;;;4.10;3.30;;;8.00;1.00;;;;;;5018210;28;20911;-67
2023/12/31 03:39:03;;;;;;;4.50;3.80;;;8.00;1.00;;;;;;5018867;28;20460;-64
2023/12/31 03:41:30;;;;;;;4.63;4.13;;;8.00;1.00;;;;;;5018812;28;20459;-66
2023/12/31 03:43:59;;;;;;;4.37;3.63;;;8.00;1.00;;;;;;5018195;28;20435;-67
2023/12/31 03:46:26;;;;;;;5.30;3.60;;;8.10;1.00;;;;;;5018411;28;20492;-65
2023/12/31 03:48:54;;;;;;;5.03;4.23;;;8.10;1.00;;;;;;5018504;28;20852;-67
2023/12/31 03:51:21;;;;;;;5.90;3.70;;;8.10;1.00;;;;;;5018799;28;20482;-65
2023/12/31 03:53:49;;;;;;;5.50;4.20;;;8.10;1.00;;;;;;5017778;28;20464;-65
2023/12/31 03:56:17;;;;;;;5.30;3.90;;;8.10;1.00;;;;;;5017948;28;20996;-64
2023/12/31 03:58:44;;;;;;;5.50;4.00;;;8.10;1.00;;;;;;5018062;28;20579;-64
2023/12/31 04:01:11;;;;;;;6.30;3.40;;;8.00;1.00;;;;;;5018039;28;20506;-64
2023/12/31 04:03:39;;;;;;;4.43;3.60;;;8.10;1.00;;;;;;5017873;28;20514;-65
2023/12/31 04:06:08;;;;;;;4.90;4.07;;;8.00;99.90;;;;;;5019783;28;20882;-65
2023/12/31 04:08:35;;;;;;;5.17;3.50;;;8.00;1.00;;;;;;5021733;28;20546;-64
2023/12/31 04:11:04;;;;;;;8.13;4.07;;;8.00;1.00;;;;;;5022233;28;20466;-64
2023/12/31 04:13:31;;;;;;;5.97;3.60;;;8.00;1.00;;;;;;5021535;28;20466;-64
2023/12/31 04:15:58;;;;;;;5.07;4.10;;;8.00;1.00;;;;;;5021916;28;20467;-64
2023/12/31 04:18:25;;;;;;;4.77;3.30;;;8.00;1.00;;;;;;5021904;28;20781;-65
2023/12/31 04:20:53;;;;;;;6.00;3.87;;;8.00;1.00;;;;;;5021997;28;20917;-64
2023/12/31 04:23:20;;;;;;;4.63;3.77;;;8.00;1.00;;;;;;5021680;28;20487;-64
2023/12/31 04:25:47;;;;;;;7.17;4.27;;;8.00;99.90;;;;;;5021368;28;20470;-64
2023/12/31 04:28:16;;;;;;;5.07;3.90;;;8.00;99.90;;;;;;5021191;28;20495;-64
2023/12/31 04:30:43;;;;;;;5.40;3.47;;;8.00;99.90;;;;;;5021984;28;20749;-63
2023/12/31 04:33:10;;;;;;;4.23;3.60;;;8.00;99.90;;;;;;5022024;28;20563;-63
2023/12/31 04:35:38;;;;;;;4.67;3.30;;;8.00;99.90;;;;;;5021955;28;20464;-63
2023/12/31 04:38:05;;;;;;;3.57;2.97;;;7.90;99.90;;;;;;5021543;28;20487;-63
2023/12/31 04:40:32;;;;;;;4.93;3.63;;;8.00;99.90;;;;;;5021720;28;20535;-63
2023/12/31 04:42:59;;;;;;;5.30;3.30;;;8.00;99.90;;;;;;5021553;28;20466;-64
2023/12/31 04:45:28;;;;;;;4.53;3.47;;;8.00;99.90;;;;;;5021347;28;20471;-63
2023/12/31 04:47:55;;;;;;;3.70;2.73;;;8.00;99.90;;;;;;5020781;28;20499;-64
2023/12/31 04:50:22;;;;;;;4.40;2.97;;;8.10;99.90;;;;;;5021900;28;20463;-63
2023/12/31 04:52:51;;;;;;;4.30;3.27;;;8.10;99.90;;;;;;5004438;28;20477;-62
2023/12/31 04:55:18;;;;;;;4.40;2.50;;;8.10;99.90;;;;;;5000016;28;20465;-63
2023/12/31 04:57:49;;;;;;;3.27;2.70;;;8.10;99.90;;;;;;4999179;28;20435;-63
2023/12/31 05:00:20;;;;;;;7.10;3.20;;;8.10;99.90;;;;;;5001165;28;20864;-63
2023/12/31 05:02:48;;;;;;;4.63;3.23;;;8.10;99.90;;;;;;5000134;28;20486;-63
2023/12/31 05:05:15;;;;;;;4.00;3.10;;;8.10;99.90;;;;;;5000948;28;20862;-63
2023/12/31 05:07:43;;;;;;;3.80;2.80;;;8.10;99.90;;;;;;5000719;28;20587;-63
2023/12/31 05:10:10;;;;;;;5.00;3.07;;;8.10;99.90;;;;;;5000720;28;20559;-64
2023/12/31 05:12:37;;;;;;;5.50;3.07;;;8.20;99.90;;;;;;4999556;28;20779;-62
2023/12/31 05:15:05;;;;;;;4.07;2.77;;;8.10;99.90;;;;;;4999331;28;20499;-63
2023/12/31 05:17:32;;;;;;;5.40;3.10;;;8.20;99.90;;;;;;4999396;28;20461;-63
2023/12/31 05:20:01;;;;;;;4.50;3.33;;;8.20;99.90;;;;;;4999350;28;20468;-63
2023/12/31 05:22:28;;;;;;;4.07;3.30;;;8.30;99.90;;;;;;4998831;28;20492;-62
2023/12/31 05:24:55;;;;;;;4.50;2.90;;;8.30;99.90;;;;;;4999085;28;20473;-62
2023/12/31 05:27:22;;;;;;;4.97;3.17;;;8.30;99.90;;;;;;4999191;28;20792;-62
2023/12/31 05:29:49;;;;;;;4.00;2.83;;;8.30;99.90;;;;;;4998811;28;20465;-62
2023/12/31 05:32:16;;;;;;;3.50;2.60;;;8.30;99.90;;;;;;4999805;28;20471;-63
2023/12/31 05:34:43;;;;;;;4.23;3.30;;;8.30;80.50;;;;;;4999451;28;20465;-62
2023/12/31 05:37:12;;;;;;;3.87;3.30;;;8.30;69.20;;;;;;5000997;28;20851;-63
2023/12/31 05:39:39;;;;;;;4.00;3.20;;;8.30;92.50;;;;;;5000162;28;20885;-62
2023/12/31 05:42:06;;;;;;;3.97;2.80;;;8.30;75.00;;;;;;5000142;28;20479;-62
2023/12/31 05:44:34;;;;;;;6.00;3.20;;;8.30;85.20;;;;;;4999589;28;20465;-62
2023/12/31 05:47:01;;;;;;;3.67;2.70;;;8.30;99.90;;;;;;4998894;28;20536;-62
2023/12/31 05:49:28;;;;;;;4.60;3.03;;;8.20;99.90;;;;;;4997741;28;20460;-61
2023/12/31 05:51:55;;;;;;;3.60;2.73;;;8.30;99.90;;;;;;4998624;28;20898;-63
2023/12/31 05:54:23;;;;;;;3.20;2.77;;;8.30;99.90;;;;;;4998344;28;20552;-63
2023/12/31 05:56:50;;;;;;;4.40;2.80;;;8.30;99.90;;;;;;4998642;28;20464;-61
2023/12/31 05:59:18;;;;;;;6.50;3.63;;;8.30;99.90;;;;;;4998996;28;20448;-62
2023/12/31 06:01:45;;;;;;;4.13;2.83;;;8.30;73.80;;;;;;4999595;28;20551;-62
2023/12/31 06:04:13;;;;;;;4.90;3.13;;;8.30;99.90;;;;;;4999893;28;20563;-61
2023/12/31 06:06:40;;;;;;;4.00;2.77;;;8.40;99.90;;;;;;4999951;28;20461;-61
2023/12/31 06:09:07;;;;;;;4.00;2.93;;;8.40;99.90;;;;;;4999945;28;20518;-62
2023/12/31 06:11:36;;;;;;;5.40;2.93;;;8.40;99.90;;;;;;5000049;28;20457;-61
2023/12/31 06:14:03;;;;;;;4.30;2.67;;;8.40;56.00;;;;;;4999496;28;20467;-62
2023/12/31 06:16:30;;;;;;;3.60;2.90;;;8.40;99.90;;;;;;4999805;28;20465;-61
2023/12/31 06:18:57;;;;;;;7.93;3.50;;;8.40;16.10;;;;;;4999719;28;20464;-61
2023/12/31 06:21:25;;;;;;;4.80;3.13;;;8.40;1.00;;;;;;4999477;28;20467;-62
2023/12/31 06:23:52;;;;;;;4.80;3.17;;;8.40;20.40;;;;;;4999462;28;20484;-61
2023/12/31 06:26:19;;;;;;;5.17;2.63;;;8.50;50.20;;;;;;4999302;28;20547;-63
2023/12/31 06:28:48;;;;;;;4.03;3.00;;;8.50;51.20;;;;;;4998624;28;20496;-62
2023/12/31 06:31:15;;;;;;;3.90;2.70;;;8.50;48.00;;;;;;4999474;28;20460;-62
2023/12/31 06:33:42;;;;;;;4.00;3.20;;;8.50;6.20;;;;;;4998530;28;20469;-61
2023/12/31 06:36:09;;;;;;;4.53;2.77;;;8.50;1.00;;;;;;4997772;28;20467;-62
2023/12/31 06:38:37;;;;;;;3.90;2.97;;;8.40;1.00;;;;;;4998001;28;20458;-61
2023/12/31 06:41:08;;;;;;;3.43;2.57;;;8.40;99.90;;;;;;4997472;28;20471;-62
2023/12/31 06:43:35;;;;;;;4.10;2.53;;;8.50;1.00;;;;;;4997770;28;20457;-61
2023/12/31 06:46:04;;;;;;;4.13;2.70;;;8.50;1.00;;;;;;4997415;28;20461;-61
2023/12/31 06:48:32;;;;;;;4.90;2.40;;;8.50;8.70;;;;;;4997473;28;20467;-62
2023/12/31 06:50:59;;;;;;;4.03;2.93;;;8.50;99.90;;;;;;4998434;28;20457;-62
2023/12/31 06:53:26;;;;;;;3.23;2.53;;;8.50;99.90;;;;;;4999161;28;20461;-61
2023/12/31 06:55:53;;;;;;;4.43;3.10;;;8.50;99.90;;;;;;4999041;28;20764;-63
2023/12/31 06:58:20;;;;;;;3.73;2.90;;;8.60;99.90;;;;;;4999143;28;20456;-63
2023/12/31 07:00:48;;;;;;;3.40;2.43;;;8.60;99.90;;;;;;4998912;28;20759;-62
2023/12/31 07:03:16;;;;;;;3.37;2.63;;;8.60;1.00;;;;;;4999080;28;20500;-62
2023/12/31 07:05:43;;;;;;;4.43;3.07;;;8.60;99.90;;;;;;4998759;28;20468;-64
2023/12/31 07:08:11;;;;;;;3.70;3.03;;;8.60;99.90;;;;;;4998677;28;20519;-62
2023/12/31 07:10:38;;;;;;;7.07;3.20;;;8.60;99.90;;;;;;4998954;28;20446;-61
2023/12/31 07:13:05;;;;;;;3.90;2.70;;;8.60;80.80;;;;;;4998552;28;20496;-61
2023/12/31 07:15:33;;;;;;;3.67;2.57;;;8.60;1.00;;;;;;4998618;28;20496;-61
2023/12/31 07:18:00;;;;;;;3.60;2.63;;;8.70;1.00;;;;;;4998529;28;20544;-61
2023/12/31 07:20:29;;;;;;;3.53;2.73;;;8.60;1.00;;;;;;4998078;28;20468;-62
2023/12/31 07:22:56;;;;;;;3.77;3.13;;;8.70;57.10;;;;;;4997987;28;20571;-61
2023/12/31 07:25:25;;;;;;;3.30;2.70;;;8.70;1.00;;;;;;4998443;28;20551;-62
2023/12/31 07:27:52;;;;;;;6.60;2.90;;;8.70;26.50;;;;;;4997949;28;20493;-62
2023/12/31 07:30:19;;;;;;;4.50;2.67;;;8.70;66.30;;;;;;4998285;28;20966;-61
2023/12/31 07:32:47;;;;;;;6.50;2.90;;;8.70;1.00;;;;;;4998464;28;20465;-62
2023/12/31 07:35:14;;;;;;;3.40;2.50;;;8.70;1.00;;;;;;4998683;28;20461;-62
2023/12/31 07:37:42;;;;;;;4.13;2.93;;;8.70;1.00;;;;;;4996945;28;20467;-62
2023/12/31 07:40:11;;;;;;;4.10;3.17;;;8.80;1.00;;;;;;4997875;28;20807;-61
2023/12/31 07:42:38;;;;;;;3.60;2.93;;;8.80;1.00;;;;;;4997990;28;20519;-62
2023/12/31 07:45:07;;;;;;;5.37;3.10;;;8.80;1.00;;;;;;4998421;28;20592;-61
2023/12/31 07:47:35;;;;;;;4.23;3.77;;;8.80;1.00;;;;;;4997679;28;20551;-62
2023/12/31 07:50:03;;;;;;;4.33;3.40;;;8.80;1.00;;;;;;4997927;28;20749;-60
2023/12/31 07:52:30;;;;;;;3.77;2.80;;;8.80;1.00;;;;;;4997789;28;20465;-62
2023/12/31 07:54:59;;;;;;;4.10;3.00;;;8.80;1.00;;;;;;4998195;28;20507;-61
2023/12/31 07:57:26;;;;;;;4.13;3.00;;;8.70;1.00;;;;;;4997928;28;20468;-61
2023/12/31 07:59:53;;;;;;;4.60;2.80;;;8.70;1.00;;;;;;4998056;28;20457;-63
2023/12/31 08:02:20;;;;;;;5.90;3.50;;;8.70;1.00;;;;;;4997877;28;20917;-62
2023/12/31 08:04:48;;;;;;;4.27;3.20;;;8.70;1.00;;;;;;4998033;28;20460;-62
2023/12/31 08:07:15;;;;;;;6.87;3.37;;;8.70;1.00;;;;;;4998054;28;20871;-61
2023/12/31 08:09:42;;;;;;;3.93;3.13;;;8.80;1.00;;;;;;4997788;28;20497;-62
2023/12/31 08:12:12;;;;;;;5.83;4.33;;;8.80;1.00;;;;;;4997796;28;20840;-62
2023/12/31 08:14:40;;;;;;;5.87;4.07;;;8.70;1.00;;;;;;4998129;28;20465;-62
2023/12/31 08:17:08;;;;;;;4.70;4.00;;;8.70;1.00;;;;;;5006356;28;20453;-61
2023/12/31 08:19:35;;;;;;;4.63;3.40;;;8.70;1.00;;;;;;5017542;28;20903;-60
2023/12/31 08:22:02;;;;;;;5.50;3.10;;;8.70;1.00;;;;;;5017335;28;20468;-60
2023/12/31 08:24:29;;;;;;;4.70;3.40;;;8.70;1.00;;;;;;5017290;28;20465;-61
2023/12/31 08:26:56;;;;;;;4.60;3.50;;;8.80;1.00;;;;;;5017393;28;20470;-61
2023/12/31 08:29:25;;;;;;;3.73;3.00;;;8.70;1.00;;;;;;5017213;28;20582;-61
2023/12/31 08:31:53;;;;;;;4.57;3.37;;;8.70;1.00;;;;;;5017226;28;20466;-63
2023/12/31 08:34:20;;;;;;;4.20;3.20;;;8.80;1.00;;;;;;5017146;28;20498;-64
2023/12/31 08:36:48;;;;;;;4.00;3.13;;;8.80;1.00;;;;;;5017572;28;20856;-61
2023/12/31 08:39:15;;;;;;;5.10;3.20;;;8.80;1.00;;;;;;5017728;28;20483;-61
2023/12/31 08:41:42;;;;;;;5.17;3.90;;;8.80;1.00;;;;;;5017126;28;20768;-62
2023/12/31 08:44:09;;;;;;;4.17;3.20;;;8.80;1.00;;;;;;5017311;28;20967;-61
2023/12/31 08:46:38;;;;;;;3.53;2.63;;;8.90;1.00;;;;;;5016226;28;20947;-60
2023/12/31 08:49:07;;;;;;;5.20;3.53;;;8.90;1.00;;;;;;5016390;28;20492;-63
2023/12/31 08:51:34;;;;;;;4.27;3.43;;;8.90;1.00;;;;;;5018043;28;20460;-63
2023/12/31 08:54:01;;;;;;;4.63;3.50;;;9.00;1.00;;;;;;5020620;28;20464;-63
2023/12/31 08:56:28;;;;;;;4.47;3.50;;;9.00;1.00;;;;;;5020204;28;20460;-62
2023/12/31 08:58:55;;;;;;;3.60;3.10;;;9.00;1.00;;;;;;5019469;28;20506;-63
2023/12/31 09:01:22;;;;;;;5.20;3.30;;;9.00;1.00;;;;;;5019166;28;20747;-62
2023/12/31 09:03:51;;;;;;;3.77;3.20;;;8.90;1.00;;;;;;5019020;28;20466;-69
2023/12/31 09:06:22;;;;;;;3.70;3.23;;;8.90;1.00;;;;;;5018891;28;20459;-64
2023/12/31 09:08:49;;;;;;;4.10;3.17;;;8.90;39.10;;;;;;5019047;28;20487;-66
2023/12/31 09:11:16;;;;;;;3.90;3.20;;;8.90;99.90;;;;;;5020006;28;20546;-67
2023/12/31 09:13:44;;;;;;;5.30;3.83;;;8.90;99.90;;;;;;5020996;28;20460;-65
2023/12/31 09:16:11;;;;;;;6.67;3.90;;;8.90;99.90;;;;;;5020819;28;20434;-65
2023/12/31 09:18:38;;;;;;;4.27;3.33;;;8.90;99.90;;;;;;5020639;28;20893;-65
2023/12/31 09:21:07;;;;;;;5.40;3.57;;;8.90;99.90;;;;;;5021232;28;20460;-66
2023/12/31 09:23:34;;;;;;;4.73;4.03;;;9.00;47.00;;;;;;5020772;28;20582;-63
2023/12/31 09:26:02;;;;;;;5.17;3.50;;;9.00;99.90;;;;;;5020073;28;20466;-64
2023/12/31 09:28:29;;;;;;;5.93;3.70;;;9.00;99.90;;;;;;5020583;28;20583;-65
2023/12/31 09:30:56;;;;;;;4.53;3.20;;;9.00;64.00;;;;;;5020849;28;20459;-65
2023/12/31 09:33:23;;;;;;;5.43;3.63;;;9.10;1.00;;;;;;5020446;28;20559;-64
2023/12/31 09:35:51;;;;;;;4.90;3.70;;;9.10;99.90;;;;;;5020028;28;20499;-64
2023/12/31 09:38:21;;;;;;;6.20;4.10;;;9.10;1.00;;;;;;5020984;28;20471;-61
2023/12/31 09:40:48;;;;;;;4.00;3.60;;;9.10;1.00;;;;;;5020519;28;20551;-66
2023/12/31 09:43:21;;;;;;;5.30;3.97;;;9.10;1.00;;;;;;5020443;28;20567;-63
2023/12/31 09:45:49;;;;;;;4.80;3.83;;;9.20;1.00;;;;;;5020963;28;20464;-66
2023/12/31 09:48:17;;;;;;;7.50;5.03;;;9.30;1.00;;;;;;5020497;28;20471;-69
2023/12/31 09:50:44;;;;;;;6.53;4.50;;;9.40;83.80;;;;;;5020516;28;20460;-62
2023/12/31 09:53:16;;;;;;;5.80;4.20;;;9.40;99.90;;;;;;5020208;28;20551;-65
2023/12/31 09:55:44;;;;;;;4.97;3.60;;;9.40;99.90;;;;;;5020240;28;20890;-62
2023/12/31 09:58:14;;;;;;;4.33;3.80;;;9.50;1.00;;;;;;5020261;28;20460;-62
2023/12/31 10:00:42;;;;;;;6.77;5.00;;;9.40;1.00;;;;;;5019922;28;20981;-63
2023/12/31 10:03:10;;;;;;;4.77;4.10;;;9.50;1.00;;;;;;5020250;28;20824;-63
2023/12/31 10:05:40;;;;;;;5.20;4.13;;;9.40;1.00;;;;;;5019982;28;20484;-62
2023/12/31 10:08:09;;;;;;;4.70;4.00;;;9.40;1.00;;;;;;5019989;28;20470;-66
2023/12/31 10:10:39;;;;;;;6.10;4.33;;;9.50;1.00;;;;;;5019862;28;20516;-62
2023/12/31 10:13:14;;;;;;;6.20;4.20;;;9.50;1.00;;;;;;5020072;28;20460;-62
2023/12/31 10:15:42;;;;;;;6.70;4.40;;;9.50;1.00;;;;;;5019366;28;20526;-62
2023/12/31 10:18:09;;;;;;;4.40;3.70;;;9.60;1.00;;;;;;5020016;28;20460;-64
2023/12/31 10:20:41;;;;;;;5.67;4.80;;;9.60;1.00;;;;;;5020584;28;20460;-62
2023/12/31 10:23:08;;;;;;;6.03;4.63;;;9.60;1.00;;;;;;5019433;28;20490;-62
2023/12/31 10:25:36;;;;;;;6.50;4.50;;;9.60;1.00;;;;;;5019760;28;20734;-64
2023/12/31 10:28:07;;;;;;;5.33;4.67;;;9.60;1.00;;;;;;5019423;28;20804;-61
2023/12/31 10:30:34;;;;;;;4.70;4.13;;;9.70;1.00;;;;;;5019570;28;20788;-63
2023/12/31 10:33:10;;;;;;;5.33;4.83;;;9.70;99.90;;;;;;5019441;28;20464;-64
2023/12/31 10:35:37;;;;;;;6.30;4.40;;;9.80;99.90;;;;;;5019798;28;20490;-63
2023/12/31 10:38:05;;;;;;;9.10;4.90;;;9.80;99.90;;;;;;5019765;28;20491;-61
2023/12/31 10:40:34;;;;;;;6.53;4.63;;;9.80;99.90;;;;;;5019323;28;20460;-65
2023/12/31 10:43:07;;;;;;;5.70;4.90;;;9.80;99.90;;;;;;5019408;28;20508;-62
2023/12/31 10:45:35;;;;;;;5.43;3.57;;;9.80;99.90;;;;;;5019485;28;20558;-64
2023/12/31 10:48:05;;;;;;;7.33;4.93;;;9.80;99.90;;;;;;5019570;28;20499;-62
2023/12/31 10:50:33;;;;;;;4.93;4.30;;;9.80;99.90;;;;;;5019560;28;20502;-63
2023/12/31 10:53:02;;;;;;;5.17;4.10;;;9.80;1.00;;;;;;5019458;28;20559;-64
2023/12/31 10:55:31;;;;;;;5.80;4.53;;;9.70;99.90;;;;;;5019376;28;20466;-63
2023/12/31 10:57:58;;;;;;;5.60;4.60;;;9.70;9.00;;;;;;5019005;28;20465;-63
2023/12/31 11:00:27;;;;;;;5.30;3.87;;;9.80;1.00;;;;;;5018851;28;20437;-63
2023/12/31 11:02:58;;;;;;;6.70;3.63;;;9.80;37.40;;;;;;5018830;28;20460;-63
2023/12/31 11:05:27;;;;;;;4.20;3.20;;;9.90;1.00;;;;;;5019371;28;20515;-62
2023/12/31 11:07:55;;;;;;;4.50;3.13;;;9.90;99.90;;;;;;5018738;28;20464;-63
2023/12/31 11:10:23;;;;;;;4.03;2.67;;;10.00;99.90;;;;;;5018759;28;20495;-64
2023/12/31 11:12:52;;;;;;;5.00;2.50;;;10.00;1.00;;;;;;5018925;28;20490;-63
2023/12/31 11:15:23;;;;;;;3.53;3.03;;;10.00;1.00;;;;;;5018769;28;20460;-63
2023/12/31 11:18:19;;;;;;;6.63;2.80;;;10.00;1.00;;;;;;5004533;28;20901;-62
2023/12/31 11:21:02;;;;;;;3.60;2.77;;;10.00;1.00;;;;;;5018397;28;20495;-64
2023/12/31 11:23:39;;;;;;;3.57;2.80;;;10.00;1.00;;;;;;5018064;28;20523;-62
2023/12/31 11:26:07;;;;;;;4.00;1.77;;;9.90;1.00;;;;;;5017996;28;20807;-61
2023/12/31 11:28:35;;;;;;;3.93;2.10;;;9.90;99.90;;;;;;5018877;28;20545;-63
2023/12/31 11:31:02;;;;;;;3.30;2.23;;;9.90;99.90;;;;;;5018801;28;20496;-63
2023/12/31 11:33:35;;;;;;;3.20;2.33;;;9.90;99.90;;;;;;5019062;28;20464;-65
2023/12/31 11:36:05;;;;;;;3.03;2.37;;;9.90;99.90;;;;;;5018512;28;20472;-62
2023/12/31 11:38:54;;;;;;;4.27;2.60;;;9.90;1.00;;;;;;5018158;28;20817;-61
2023/12/31 11:41:21;;;;;;;3.00;2.47;;;9.80;99.90;;;;;;5018379;28;20459;-62
2023/12/31 11:43:50;;;;;;;3.40;2.10;;;9.80;99.90;;;;;;5018143;28;20498;-62
2023/12/31 11:46:38;;;;;;;2.77;2.30;;;9.70;1.00;;;;;;5018553;28;20636;-62
2023/12/31 11:49:07;;;;;;;4.20;2.20;;;9.50;1.00;;;;;;5018093;28;20441;-63
2023/12/31 11:51:54;;;;;;;2.73;1.80;;;9.40;92.80;;;;;;5018567;28;20964;-63
2023/12/31 11:54:22;;;;;;;3.20;2.10;;;9.30;56.90;;;;;;5018372;28;20724;-63
2023/12/31 11:56:52;;;;;;;3.03;1.67;;;9.20;1.00;;;;;;5018145;28;20463;-62
2023/12/31 11:59:21;;;;;;;2.97;1.93;;;9.20;1.00;;;;;;5017837;28;20462;-61
2023/12/31 12:01:49;;;;;;;2.30;1.30;;;9.20;1.00;;;;;;5018322;28;20468;-63
2023/12/31 12:04:18;;;;;;;3.20;2.10;;;9.20;1.00;;;;;;5017858;28;20487;-63
2023/12/31 12:06:46;;;;;;;7.23;3.00;;;9.10;99.90;;;;;;5018349;28;20460;-64
2023/12/31 12:09:13;;;;;;;2.53;1.40;;;9.00;99.90;;;;;;5018267;28;20546;-65
2023/12/31 12:11:43;;;;;;;3.83;2.20;;;9.00;99.90;;;;;;5017758;28;20467;-63
2023/12/31 12:14:12;;;;;;;3.30;1.73;;;9.10;99.90;;;;;;5018289;28;20464;-64
2023/12/31 12:16:39;;;;;;;4.00;2.40;;;9.10;99.90;;;;;;5018112;28;20459;-63
2023/12/31 12:19:08;;;;;;;2.50;1.70;;;9.10;99.90;;;;;;5018040;28;20475;-62
2023/12/31 12:21:37;;;;;;;3.80;1.97;;;9.10;19.30;;;;;;5018082;28;20531;-62
2023/12/31 12:24:05;;;;;;;6.43;2.97;;;9.10;99.90;;;;;;5018362;28;20559;-60
2023/12/31 12:26:33;;;;;;;8.00;4.20;;;9.10;1.00;;;;;;5018068;28;20464;-62
2023/12/31 12:29:02;;;;;;;2.50;1.50;;;9.10;42.50;;;;;;5021729;28;20533;-62
2023/12/31 12:31:35;;;;;;;3.20;1.93;;;9.00;99.90;;;;;;5021648;28;20518;-62
2023/12/31 12:34:04;;;;;;;2.70;1.70;;;8.90;99.90;;;;;;5021470;28;20474;-63
2023/12/31 12:36:32;;;;;;;3.30;1.93;;;8.90;1.00;;;;;;5020927;28;20462;-62
2023/12/31 12:39:02;;;;;;;2.80;1.50;;;8.80;1.00;;;;;;5021007;28;20495;-66
2023/12/31 12:41:31;;;;;;;3.27;1.83;;;8.70;99.90;;;;;;5021137;28;20460;-66
2023/12/31 12:43:59;;;;;;;4.10;2.00;;;8.50;99.90;;;;;;5021674;28;20467;-67
2023/12/31 12:46:29;;;;;;;3.50;1.80;;;8.50;1.00;;;;;;5021073;28;20463;-66
2023/12/31 12:48:57;;;;;;;4.90;2.17;;;8.50;1.00;;;;;;5020583;28;20470;-66
2023/12/31 12:51:25;;;;;;;3.70;2.30;;;8.50;1.00;;;;;;5021051;28;20569;-68
2023/12/31 12:53:53;;;;;;;3.47;1.80;;;8.50;1.00;;;;;;5020178;28;20473;-66
2023/12/31 12:56:23;;;;;;;2.40;1.60;;;8.50;1.00;;;;;;5020782;28;20503;-66
2023/12/31 12:58:53;;;;;;;3.47;1.97;;;8.40;1.00;;;;;;5020086;28;20744;-66
2023/12/31 13:01:33;;;;;;;3.23;1.93;;;8.40;1.00;;;;;;5019758;28;20463;-67
2023/12/31 13:04:15;;;;;;;2.70;1.80;;;8.40;1.00;;;;;;5020444;28;20825;-66
2023/12/31 13:06:46;;;;;;;4.10;1.60;;;8.40;1.00;;;;;;5020117;28;20566;-70
2023/12/31 13:09:16;;;;;;;2.77;1.50;;;8.40;1.00;;;;;;5020197;28;20526;-66